TRC weather

Francisco Sarabia International Airport
TorreĆ³n, Coahuila, Mexico

Public forecast

Using degrees Celsius for public forecast. Weather courtesy of forecast.io.

METAR (pilot weather report)

Report is more than 2 hours old.

Retrieved 2019/04/26 03:42 UTC (6 hours ago):

MMTC 260342Z 00000KT 8SM FEW200 26/M02 A3009 RMK 8/002

TAF (pilot weather forecast)

Retrieved 2019/04/26 06:43 UTC (3 hours ago):

TAF MMTC 260536Z 2606/2706 00000KT P6SM SCT200 FM261800 09012KT P6SM SCT090 BKN200 BECMG 2703/2705 10015KT SCT220